Time;durP1;ratioP1;P1;durP2;ratioP2;P2;SDS_P1;SDS_P2;PMS_P1;PMS_P2;Temp;Humidity;BMP_temperature;BMP_pressure;BME280_temperature;BME280_humidity;BME280_pressure;Samples;Min_cycle;Max_cycle;Signal;HPM_P1;HPM_P2
2024/01/21 00:01:20;;;;;;;12.10;8.90;;;;;;;;;;5134602;27;20096;-78
2024/01/21 00:03:46;;;;;;;13.45;9.70;;;;;;;;;;5133662;27;20051;-78
2024/01/21 00:06:12;;;;;;;13.98;8.88;;;;;;;;;;5134895;27;20089;-78
2024/01/21 00:08:38;;;;;;;12.98;8.35;;;;;;;;;;5133740;27;20046;-77
2024/01/21 00:11:05;;;;;;;12.57;7.30;;;;;;;;;;5134549;28;20047;-78
2024/01/21 00:13:31;;;;;;;14.25;6.63;;;;;;;;;;5133778;28;20043;-77
2024/01/21 00:15:57;;;;;;;10.90;7.07;;;;;;;;;;5134665;28;20043;-77
2024/01/21 00:18:23;;;;;;;11.30;7.32;;;;;;;;;;5133523;28;20043;-78
2024/01/21 00:20:49;;;;;;;12.88;6.82;;;;;;;;;;5134504;27;20498;-77
2024/01/21 00:23:15;;;;;;;10.48;6.88;;;;;;;;;;5138332;27;20168;-78
2024/01/21 00:25:41;;;;;;;10.73;7.45;;;;;;;;;;5138805;27;20050;-78
2024/01/21 00:28:07;;;;;;;9.68;7.75;;;;;;;;;;5137625;27;20066;-78
2024/01/21 00:30:33;;;;;;;13.15;7.60;;;;;;;;;;5137853;27;20407;-77
2024/01/21 00:32:59;;;;;;;13.63;8.20;;;;;;;;;;5138709;27;20484;-78
2024/01/21 00:35:25;;;;;;;10.32;6.97;;;;;;;;;;5120927;27;20057;-78
2024/01/21 00:37:51;;;;;;;10.45;7.30;;;;;;;;;;5137570;27;20053;-77
2024/01/21 00:40:17;;;;;;;10.82;7.85;;;;;;;;;;5138308;27;20475;-78
2024/01/21 00:42:43;;;;;;;12.13;6.80;;;;;;;;;;5137533;27;20043;-78
2024/01/21 00:45:10;;;;;;;8.55;5.90;;;;;;;;;;5137450;27;20536;-77
2024/01/21 00:47:36;;;;;;;12.10;6.95;;;;;;;;;;5136962;27;20103;-77
2024/01/21 00:50:03;;;;;;;16.88;9.90;;;;;;;;;;5138358;27;20062;-77
2024/01/21 00:52:29;;;;;;;7.75;5.70;;;;;;;;;;5136457;27;20047;-78
2024/01/21 00:54:55;;;;;;;8.45;6.03;;;;;;;;;;5138171;27;20088;-77
2024/01/21 00:57:21;;;;;;;7.88;5.10;;;;;;;;;;5152171;27;20148;-77
2024/01/21 00:59:48;;;;;;;5.93;4.75;;;;;;;;;;5140437;27;20420;-77
2024/01/21 01:02:14;;;;;;;6.68;4.03;;;;;;;;;;5140567;27;20131;-77
2024/01/21 01:04:40;;;;;;;6.85;5.18;;;;;;;;;;5158698;27;20050;-78
2024/01/21 01:07:07;;;;;;;5.30;4.38;;;;;;;;;;5140495;27;20039;-78
2024/01/21 01:09:33;;;;;;;5.10;4.20;;;;;;;;;;5158770;27;20039;-78
2024/01/21 01:11:59;;;;;;;7.97;5.22;;;;;;;;;;5140302;27;20039;-78
2024/01/21 01:14:25;;;;;;;6.35;3.97;;;;;;;;;;5140416;27;20497;-78
2024/01/21 01:16:51;;;;;;;4.47;3.88;;;;;;;;;;5140293;27;20042;-78
2024/01/21 01:19:17;;;;;;;4.50;3.50;;;;;;;;;;5158490;27;20039;-78
2024/01/21 01:21:43;;;;;;;4.05;3.10;;;;;;;;;;5158089;27;20086;-80
2024/01/21 01:24:10;;;;;;;4.43;3.03;;;;;;;;;;5122614;27;20469;-78
2024/01/21 01:26:36;;;;;;;4.63;3.15;;;;;;;;;;5140115;27;20046;-78
2024/01/21 01:29:02;;;;;;;5.50;3.30;;;;;;;;;;5139981;27;20393;-77
2024/01/21 01:31:28;;;;;;;4.15;2.95;;;;;;;;;;5139818;27;20398;-78
2024/01/21 01:33:54;;;;;;;5.65;3.10;;;;;;;;;;5156833;27;20042;-78
2024/01/21 01:36:20;;;;;;;4.25;3.45;;;;;;;;;;5158297;27;20149;-78
2024/01/21 01:38:46;;;;;;;3.60;2.53;;;;;;;;;;5157971;27;20060;-78
2024/01/21 01:41:12;;;;;;;7.25;2.75;;;;;;;;;;5139935;27;20392;-78
2024/01/21 01:43:38;;;;;;;3.60;2.53;;;;;;;;;;5139538;27;20046;-77
2024/01/21 01:46:05;;;;;;;2.38;2.17;;;;;;;;;;5139401;27;20047;-78
2024/01/21 01:48:31;;;;;;;3.92;2.25;;;;;;;;;;5139565;27;20055;-78
2024/01/21 01:50:59;;;;;;;3.28;2.47;;;;;;;;;;5139646;27;20057;-78
2024/01/21 01:53:25;;;;;;;4.40;2.60;;;;;;;;;;5121927;27;20142;-78
2024/01/21 01:55:51;;;;;;;4.47;3.63;;;;;;;;;;5157748;27;20478;-78
2024/01/21 01:58:18;;;;;;;4.05;2.33;;;;;;;;;;5122465;27;20085;-78
2024/01/21 02:00:45;;;;;;;3.72;2.47;;;;;;;;;;5157767;27;20129;-78
2024/01/21 02:03:12;;;;;;;3.85;1.80;;;;;;;;;;5139177;27;20047;-78
2024/01/21 02:05:38;;;;;;;3.90;2.03;;;;;;;;;;5139974;27;20055;-78
2024/01/21 02:08:04;;;;;;;3.55;2.08;;;;;;;;;;5157690;27;20054;-78
2024/01/21 02:10:30;;;;;;;2.63;1.55;;;;;;;;;;5139339;27;20042;-78
2024/01/21 02:12:57;;;;;;;2.25;1.05;;;;;;;;;;5157472;27;20058;-78
2024/01/21 02:15:23;;;;;;;3.03;1.20;;;;;;;;;;5122182;27;20050;-78
2024/01/21 02:17:50;;;;;;;3.33;2.20;;;;;;;;;;5138851;27;20057;-78
2024/01/21 02:20:16;;;;;;;2.75;1.10;;;;;;;;;;5138955;27;20065;-78
2024/01/21 02:22:42;;;;;;;1.80;1.20;;;;;;;;;;5138489;27;20046;-78
2024/01/21 02:25:09;;;;;;;1.98;1.27;;;;;;;;;;5138824;27;20439;-78
2024/01/21 02:27:36;;;;;;;2.92;0.90;;;;;;;;;;5138966;27;20398;-78
2024/01/21 02:30:03;;;;;;;2.42;0.90;;;;;;;;;;5139352;27;20058;-78
2024/01/21 02:32:29;;;;;;;2.63;1.17;;;;;;;;;;5138560;27;20046;-78
2024/01/21 02:34:55;;;;;;;2.78;1.20;;;;;;;;;;5139018;27;20046;-78
2024/01/21 02:37:21;;;;;;;1.90;1.13;;;;;;;;;;5156958;27;20049;-78
2024/01/21 02:39:47;;;;;;;2.10;1.33;;;;;;;;;;5138590;27;20039;-78
2024/01/21 02:42:14;;;;;;;1.40;0.77;;;;;;;;;;5138610;27;20478;-78
2024/01/21 02:44:40;;;;;;;2.80;1.10;;;;;;;;;;5156368;27;20046;-78
2024/01/21 02:47:06;;;;;;;1.90;1.13;;;;;;;;;;5138860;27;20058;-78
2024/01/21 02:49:32;;;;;;;3.58;0.75;;;;;;;;;;5138512;27;20184;-78
2024/01/21 02:51:58;;;;;;;3.17;1.00;;;;;;;;;;5132861;27;20560;-79
2024/01/21 02:54:25;;;;;;;1.65;0.85;;;;;;;;;;5117575;27;20054;-78
2024/01/21 02:56:52;;;;;;;1.15;0.45;;;;;;;;;;5113715;28;20141;-78
2024/01/21 02:59:18;;;;;;;1.60;0.90;;;;;;;;;;5113662;28;20044;-78
2024/01/21 03:01:44;;;;;;;1.50;0.82;;;;;;;;;;5114633;28;20059;-78
2024/01/21 03:04:11;;;;;;;2.45;0.70;;;;;;;;;;5114031;28;20388;-78
2024/01/21 03:06:37;;;;;;;3.80;1.15;;;;;;;;;;5114049;28;20183;-78
2024/01/21 03:09:04;;;;;;;1.15;0.47;;;;;;;;;;5115009;28;20043;-78
2024/01/21 03:11:31;;;;;;;2.13;0.93;;;;;;;;;;5097130;28;20043;-78
2024/01/21 03:13:57;;;;;;;1.65;0.60;;;;;;;;;;5113731;28;20043;-78
2024/01/21 03:16:24;;;;;;;1.55;0.68;;;;;;;;;;5114994;28;20161;-78
2024/01/21 03:18:50;;;;;;;1.80;0.55;;;;;;;;;;5113922;28;20048;-78
2024/01/21 03:21:16;;;;;;;1.45;0.70;;;;;;;;;;5113946;28;20104;-78
2024/01/21 03:23:42;;;;;;;2.03;0.60;;;;;;;;;;5112986;28;20048;-78
2024/01/21 03:26:08;;;;;;;3.03;0.70;;;;;;;;;;5114743;28;20515;-78
2024/01/21 03:28:34;;;;;;;2.30;0.50;;;;;;;;;;5113376;28;20111;-78
2024/01/21 03:31:00;;;;;;;1.58;0.50;;;;;;;;;;5113607;28;20054;-78
2024/01/21 03:33:26;;;;;;;1.48;0.55;;;;;;;;;;5113620;28;20052;-78
2024/01/21 03:35:53;;;;;;;2.75;0.68;;;;;;;;;;5114536;28;20043;-79
2024/01/21 03:38:19;;;;;;;1.60;0.50;;;;;;;;;;5114561;28;20475;-78
2024/01/21 03:40:45;;;;;;;0.80;0.50;;;;;;;;;;5113732;28;20055;-78
2024/01/21 03:43:11;;;;;;;1.42;0.70;;;;;;;;;;5113565;28;20066;-78
2024/01/21 03:45:37;;;;;;;1.83;0.60;;;;;;;;;;5114455;28;20052;-78
2024/01/21 03:48:03;;;;;;;1.45;0.70;;;;;;;;;;5113531;28;20108;-78
2024/01/21 03:50:29;;;;;;;2.17;0.60;;;;;;;;;;5113240;28;20103;-79
2024/01/21 03:52:55;;;;;;;1.30;0.55;;;;;;;;;;5095863;28;20440;-78
2024/01/21 03:55:22;;;;;;;1.67;0.40;;;;;;;;;;5112721;28;20475;-78
2024/01/21 03:57:48;;;;;;;1.55;0.50;;;;;;;;;;5132142;27;20047;-78
2024/01/21 04:00:14;;;;;;;2.60;0.60;;;;;;;;;;5134991;27;20457;-78
2024/01/21 04:02:41;;;;;;;1.95;0.40;;;;;;;;;;5116495;27;20407;-79
2024/01/21 04:05:07;;;;;;;1.25;0.60;;;;;;;;;;5116311;28;20475;-78
2024/01/21 04:07:33;;;;;;;2.42;0.45;;;;;;;;;;5134802;27;20103;-78
2024/01/21 04:10:00;;;;;;;2.15;0.40;;;;;;;;;;5134607;27;20043;-78
2024/01/21 04:12:26;;;;;;;1.95;0.30;;;;;;;;;;5134800;28;20054;-78
2024/01/21 04:14:52;;;;;;;1.42;0.47;;;;;;;;;;5116485;28;20490;-78
2024/01/21 04:17:20;;;;;;;1.15;0.40;;;;;;;;;;5116471;28;20093;-78
2024/01/21 04:19:46;;;;;;;2.05;0.50;;;;;;;;;;5116678;28;20043;-78
2024/01/21 04:22:12;;;;;;;2.70;0.50;;;;;;;;;;5115813;28;20395;-78
2024/01/21 04:24:38;;;;;;;0.90;0.40;;;;;;;;;;5116607;28;20078;-78
2024/01/21 04:27:04;;;;;;;2.30;0.60;;;;;;;;;;5134560;28;20518;-78
2024/01/21 04:29:30;;;;;;;0.93;0.47;;;;;;;;;;5134269;28;20050;-78
2024/01/21 04:31:56;;;;;;;0.90;0.40;;;;;;;;;;5099334;28;20051;-78
2024/01/21 04:34:22;;;;;;;0.77;0.40;;;;;;;;;;5116374;28;20040;-78
2024/01/21 04:36:49;;;;;;;1.02;0.50;;;;;;;;;;5134445;28;20066;-78
2024/01/21 04:39:19;;;;;;;1.48;0.57;;;;;;;;;;5115670;28;20096;-78
2024/01/21 04:41:45;;;;;;;1.52;0.30;;;;;;;;;;5116491;28;20142;-78
2024/01/21 04:44:11;;;;;;;1.10;0.40;;;;;;;;;;5116631;28;20047;-78
2024/01/21 04:46:37;;;;;;;2.70;0.40;;;;;;;;;;5116230;28;20475;-78
2024/01/21 04:49:03;;;;;;;2.25;0.38;;;;;;;;;;5116083;28;20054;-78
2024/01/21 04:51:29;;;;;;;1.83;0.30;;;;;;;;;;5116227;28;20104;-78
2024/01/21 04:53:55;;;;;;;0.95;0.47;;;;;;;;;;5115745;28;20051;-78
2024/01/21 04:56:21;;;;;;;1.45;0.50;;;;;;;;;;5134006;28;20051;-78
2024/01/21 04:58:50;;;;;;;1.10;0.50;;;;;;;;;;5115850;28;20047;-78
2024/01/21 05:01:16;;;;;;;1.00;0.43;;;;;;;;;;5116203;28;20058;-78
2024/01/21 05:03:42;;;;;;;1.60;0.40;;;;;;;;;;5134504;28;20047;-78
2024/01/21 05:06:08;;;;;;;0.80;0.50;;;;;;;;;;5134013;28;20130;-78
2024/01/21 05:08:34;;;;;;;1.25;0.50;;;;;;;;;;5136846;27;20486;-78
2024/01/21 05:11:01;;;;;;;0.80;0.40;;;;;;;;;;5137977;27;20100;-78
2024/01/21 05:13:27;;;;;;;1.20;0.43;;;;;;;;;;5119571;27;20475;-78
2024/01/21 05:15:53;;;;;;;1.30;0.63;;;;;;;;;;5119531;27;20043;-78
2024/01/21 05:18:20;;;;;;;0.90;0.40;;;;;;;;;;5119658;27;20102;-78
2024/01/21 05:20:47;;;;;;;1.77;0.70;;;;;;;;;;5105904;28;20047;-78
2024/01/21 05:23:13;;;;;;;2.20;0.40;;;;;;;;;;5116394;28;20503;-78
2024/01/21 05:25:39;;;;;;;2.17;0.43;;;;;;;;;;5098957;28;20368;-78
2024/01/21 05:28:05;;;;;;;1.08;0.50;;;;;;;;;;5082025;28;20048;-78
2024/01/21 05:30:31;;;;;;;1.27;0.60;;;;;;;;;;5117064;28;20043;-78
2024/01/21 05:32:57;;;;;;;1.38;0.60;;;;;;;;;;5098908;28;20515;-78
2024/01/21 05:35:23;;;;;;;2.13;0.63;;;;;;;;;;5098947;28;20048;-78
2024/01/21 05:37:49;;;;;;;1.42;0.70;;;;;;;;;;5099049;28;20043;-78
2024/01/21 05:40:16;;;;;;;1.75;1.10;;;;;;;;;;5116832;28;20040;-78
2024/01/21 05:42:42;;;;;;;1.70;0.80;;;;;;;;;;5098722;28;20408;-78
2024/01/21 05:45:09;;;;;;;1.65;0.60;;;;;;;;;;5117020;28;20570;-78
2024/01/21 05:47:35;;;;;;;1.45;0.93;;;;;;;;;;5098887;28;20088;-78
2024/01/21 05:50:01;;;;;;;2.58;0.63;;;;;;;;;;5116658;28;20123;-78
2024/01/21 05:52:27;;;;;;;1.88;0.90;;;;;;;;;;5098048;28;20043;-78
2024/01/21 05:54:53;;;;;;;1.85;1.13;;;;;;;;;;5098321;28;20079;-78
2024/01/21 05:57:19;;;;;;;1.75;1.13;;;;;;;;;;5097952;28;20552;-78
2024/01/21 05:59:45;;;;;;;4.07;1.00;;;;;;;;;;5098219;28;20051;-78
2024/01/21 06:02:11;;;;;;;2.13;0.98;;;;;;;;;;5116349;28;20039;-78
2024/01/21 06:04:40;;;;;;;3.95;1.08;;;;;;;;;;5098220;28;20055;-78
2024/01/21 06:07:06;;;;;;;3.33;1.55;;;;;;;;;;5098372;28;20139;-78
2024/01/21 06:09:32;;;;;;;1.60;1.17;;;;;;;;;;5081473;28;20047;-78
2024/01/21 06:11:58;;;;;;;2.13;0.93;;;;;;;;;;5098250;28;20079;-78
2024/01/21 06:14:25;;;;;;;2.83;1.10;;;;;;;;;;5081388;28;20089;-78
2024/01/21 06:16:52;;;;;;;3.53;1.58;;;;;;;;;;5115956;28;20054;-78
2024/01/21 06:19:18;;;;;;;2.25;1.02;;;;;;;;;;5097204;28;20048;-78
2024/01/21 06:21:45;;;;;;;3.72;1.52;;;;;;;;;;5081423;28;20039;-78
2024/01/21 06:24:12;;;;;;;3.65;1.92;;;;;;;;;;5097638;28;20521;-78
2024/01/21 06:26:40;;;;;;;3.40;1.38;;;;;;;;;;5097922;28;20051;-78
2024/01/21 06:29:06;;;;;;;2.47;1.83;;;;;;;;;;5097807;28;20059;-78
2024/01/21 06:31:33;;;;;;;4.40;1.80;;;;;;;;;;5097889;28;20044;-78
2024/01/21 06:33:59;;;;;;;3.55;2.53;;;;;;;;;;5097809;28;20046;-78
2024/01/21 06:36:25;;;;;;;4.05;1.90;;;;;;;;;;5115695;28;20044;-78
2024/01/21 06:38:51;;;;;;;4.43;1.92;;;;;;;;;;5097563;28;20100;-77
2024/01/21 06:41:17;;;;;;;4.00;2.63;;;;;;;;;;5097269;28;20552;-78
2024/01/21 06:43:43;;;;;;;3.17;2.35;;;;;;;;;;5097651;28;20439;-78
2024/01/21 06:46:09;;;;;;;3.65;2.70;;;;;;;;;;5115686;28;20048;-78
2024/01/21 06:48:36;;;;;;;4.63;2.40;;;;;;;;;;5115525;28;20120;-77
2024/01/21 06:51:09;;;;;;;4.18;2.58;;;;;;;;;;5115398;28;20055;-78
2024/01/21 06:53:35;;;;;;;4.63;3.13;;;;;;;;;;5115173;28;20047;-78
2024/01/21 06:56:07;;;;;;;3.92;2.65;;;;;;;;;;5080932;28;20064;-78
2024/01/21 06:58:36;;;;;;;4.75;2.60;;;;;;;;;;5115176;28;20055;-78
2024/01/21 07:01:02;;;;;;;4.57;2.85;;;;;;;;;;5080664;28;20490;-77
2024/01/21 07:03:28;;;;;;;3.88;2.80;;;;;;;;;;5080051;28;20053;-78
2024/01/21 07:05:55;;;;;;;5.50;3.15;;;;;;;;;;5115338;28;20126;-78
2024/01/21 07:08:21;;;;;;;6.25;4.05;;;;;;;;;;5097173;28;20440;-77
2024/01/21 07:10:47;;;;;;;5.40;2.83;;;;;;;;;;5115204;28;20441;-78
2024/01/21 07:13:13;;;;;;;5.18;2.22;;;;;;;;;;5115027;28;20043;-78
2024/01/21 07:15:40;;;;;;;4.80;3.40;;;;;;;;;;5124635;27;20070;-78
2024/01/21 07:18:07;;;;;;;5.38;3.08;;;;;;;;;;5117134;27;20060;-77
2024/01/21 07:20:33;;;;;;;5.70;3.85;;;;;;;;;;5135446;27;20043;-78
2024/01/21 07:22:59;;;;;;;3.90;3.15;;;;;;;;;;5133686;27;20047;-78
2024/01/21 07:25:25;;;;;;;3.95;2.55;;;;;;;;;;5135276;27;20043;-78
2024/01/21 07:27:51;;;;;;;4.82;3.95;;;;;;;;;;5124714;27;20047;-78
2024/01/21 07:30:17;;;;;;;6.22;4.40;;;;;;;;;;5155932;27;20039;-78
2024/01/21 07:32:44;;;;;;;5.22;3.50;;;;;;;;;;5137879;27;20114;-77
2024/01/21 07:35:10;;;;;;;5.82;4.38;;;;;;;;;;5155998;27;20061;-78
2024/01/21 07:37:36;;;;;;;5.07;3.53;;;;;;;;;;5155881;27;20050;-77
2024/01/21 07:40:03;;;;;;;5.28;3.83;;;;;;;;;;5135433;27;20493;-77
2024/01/21 07:42:30;;;;;;;5.18;3.97;;;;;;;;;;5134535;27;20050;-77
2024/01/21 07:44:56;;;;;;;5.00;3.42;;;;;;;;;;5116332;27;20043;-79
2024/01/21 07:47:22;;;;;;;4.85;3.38;;;;;;;;;;5117341;27;20440;-79
2024/01/21 07:49:48;;;;;;;5.90;3.92;;;;;;;;;;5117164;27;20057;-79
2024/01/21 07:52:16;;;;;;;5.55;3.90;;;;;;;;;;5116373;27;20050;-81
2024/01/21 07:54:43;;;;;;;5.72;4.15;;;;;;;;;;5116794;27;20043;-78
2024/01/21 07:57:09;;;;;;;4.85;3.88;;;;;;;;;;5134850;27;20055;-81
2024/01/21 07:59:35;;;;;;;6.82;3.63;;;;;;;;;;5116842;28;20384;-81
2024/01/21 08:02:01;;;;;;;5.72;4.25;;;;;;;;;;5099634;28;20050;-79
2024/01/21 08:04:27;;;;;;;7.60;4.40;;;;;;;;;;5134610;27;20043;-82
2024/01/21 08:06:53;;;;;;;7.47;3.90;;;;;;;;;;5116706;27;20092;-82
2024/01/21 08:09:20;;;;;;;6.45;3.97;;;;;;;;;;5116901;27;20379;-82
2024/01/21 08:11:47;;;;;;;5.05;3.28;;;;;;;;;;5083692;28;20047;-80
2024/01/21 08:14:13;;;;;;;7.70;4.45;;;;;;;;;;5082569;28;20047;-82
2024/01/21 08:16:39;;;;;;;5.88;3.75;;;;;;;;;;5099718;28;20083;-78
2024/01/21 08:19:05;;;;;;;5.63;3.53;;;;;;;;;;5116529;28;20046;-79
2024/01/21 08:21:31;;;;;;;6.63;4.00;;;;;;;;;;5116901;28;20043;-79
2024/01/21 08:23:57;;;;;;;6.10;4.28;;;;;;;;;;5115924;28;20043;-79
2024/01/21 08:26:23;;;;;;;7.07;4.55;;;;;;;;;;5116362;28;20043;-81
2024/01/21 08:28:50;;;;;;;6.43;3.97;;;;;;;;;;5099132;28;20131;-81
2024/01/21 08:31:16;;;;;;;6.50;4.90;;;;;;;;;;5082418;28;20482;-81
2024/01/21 08:33:42;;;;;;;5.32;3.97;;;;;;;;;;5116426;28;20049;-81
2024/01/21 08:36:09;;;;;;;8.00;4.38;;;;;;;;;;5115631;28;20043;-81
2024/01/21 08:38:35;;;;;;;5.22;3.90;;;;;;;;;;5099003;28;20055;-79
2024/01/21 08:41:01;;;;;;;6.25;4.35;;;;;;;;;;5099354;28;20452;-76
2024/01/21 08:43:27;;;;;;;5.90;3.70;;;;;;;;;;5137475;27;20043;-78
2024/01/21 08:45:53;;;;;;;7.32;4.18;;;;;;;;;;5120339;27;20035;-77
2024/01/21 08:48:19;;;;;;;6.72;4.43;;;;;;;;;;5138700;27;20043;-77
2024/01/21 08:50:46;;;;;;;5.30;4.05;;;;;;;;;;5103294;27;20474;-77
2024/01/21 08:53:12;;;;;;;5.30;3.72;;;;;;;;;;5137820;27;20043;-78
2024/01/21 08:55:38;;;;;;;7.05;3.42;;;;;;;;;;5138335;27;20395;-77
2024/01/21 08:58:04;;;;;;;4.75;4.07;;;;;;;;;;5102598;27;20059;-78
2024/01/21 09:00:30;;;;;;;6.72;4.63;;;;;;;;;;5138472;27;20043;-78
2024/01/21 09:02:56;;;;;;;5.60;4.55;;;;;;;;;;5138129;27;20051;-77
2024/01/21 09:05:22;;;;;;;5.68;5.07;;;;;;;;;;5119548;27;20505;-78
2024/01/21 09:07:48;;;;;;;5.32;4.53;;;;;;;;;;5120385;27;20507;-78
2024/01/21 09:10:14;;;;;;;5.47;3.70;;;;;;;;;;5137960;27;20043;-78
2024/01/21 09:12:40;;;;;;;6.97;4.20;;;;;;;;;;5102822;27;20092;-78
2024/01/21 09:15:07;;;;;;;6.32;4.70;;;;;;;;;;5119968;27;20047;-78
2024/01/21 09:17:33;;;;;;;8.48;4.97;;;;;;;;;;5119424;27;20035;-78
2024/01/21 09:19:59;;;;;;;6.75;4.38;;;;;;;;;;5119560;27;20075;-77
2024/01/21 09:22:25;;;;;;;5.10;4.05;;;;;;;;;;5119142;27;20047;-78
2024/01/21 09:24:52;;;;;;;5.55;3.88;;;;;;;;;;5119622;27;20090;-78
2024/01/21 09:27:18;;;;;;;7.18;4.82;;;;;;;;;;5137661;27;20085;-78
2024/01/21 09:29:44;;;;;;;5.68;5.07;;;;;;;;;;5102265;27;20053;-78
2024/01/21 09:32:13;;;;;;;7.28;4.90;;;;;;;;;;5119546;27;20117;-78
2024/01/21 09:34:39;;;;;;;6.80;4.60;;;;;;;;;;5137490;27;20046;-77
2024/01/21 09:37:08;;;;;;;7.47;5.38;;;;;;;;;;5119380;27;20474;-76
2024/01/21 09:39:34;;;;;;;5.68;3.95;;;;;;;;;;5137346;27;20046;-76
2024/01/21 09:42:00;;;;;;;5.65;4.97;;;;;;;;;;5119309;27;20047;-78
2024/01/21 09:44:27;;;;;;;3.05;2.13;;;;;;;;;;5119654;27;20086;-78
2024/01/21 09:46:54;;;;;;;4.95;4.07;;;;;;;;;;5137233;27;20047;-78
2024/01/21 09:49:21;;;;;;;6.35;4.50;;;;;;;;;;5137231;27;20046;-77
2024/01/21 09:51:47;;;;;;;8.63;4.85;;;;;;;;;;5118588;27;20050;-78
2024/01/21 09:54:13;;;;;;;5.25;4.53;;;;;;;;;;5135129;27;20047;-77
2024/01/21 09:56:41;;;;;;;6.97;4.85;;;;;;;;;;5101421;27;20055;-78
2024/01/21 09:59:08;;;;;;;6.85;5.05;;;;;;;;;;5118705;27;20119;-78
2024/01/21 10:01:36;;;;;;;5.13;3.88;;;;;;;;;;5118902;27;20391;-78
2024/01/21 10:04:03;;;;;;;9.93;5.18;;;;;;;;;;5136990;27;20084;-77
2024/01/21 10:06:29;;;;;;;5.43;4.38;;;;;;;;;;5135728;27;20047;-78
2024/01/21 10:09:11;;;;;;;5.68;4.20;;;;;;;;;;5118560;27;20039;-77
2024/01/21 10:11:37;;;;;;;5.25;4.22;;;;;;;;;;5118380;27;20135;-78
2024/01/21 10:14:03;;;;;;;8.15;4.65;;;;;;;;;;5118638;27;20072;-78
2024/01/21 10:16:29;;;;;;;6.47;4.70;;;;;;;;;;5136748;27;20081;-78
2024/01/21 10:18:55;;;;;;;7.65;4.90;;;;;;;;;;5135284;27;20482;-78
2024/01/21 10:21:21;;;;;;;7.70;5.45;;;;;;;;;;5139852;27;20049;-78
2024/01/21 10:23:47;;;;;;;9.00;4.63;;;;;;;;;;5135923;27;20047;-78
2024/01/21 10:26:14;;;;;;;6.10;4.60;;;;;;;;;;5118472;27;20047;-78
2024/01/21 10:28:41;;;;;;;6.40;5.00;;;;;;;;;;5118404;27;20129;-78
2024/01/21 10:31:07;;;;;;;6.63;4.70;;;;;;;;;;5118091;27;20385;-78
2024/01/21 10:33:34;;;;;;;7.30;5.65;;;;;;;;;;5117830;27;20031;-78
2024/01/21 10:36:03;;;;;;;5.00;3.53;;;;;;;;;;5136384;27;20050;-78
2024/01/21 10:38:30;;;;;;;5.55;4.47;;;;;;;;;;5118110;27;20070;-78
2024/01/21 10:41:00;;;;;;;5.80;4.05;;;;;;;;;;5118103;27;20405;-78
2024/01/21 10:43:28;;;;;;;6.95;5.18;;;;;;;;;;5118105;27;20051;-78
2024/01/21 10:45:54;;;;;;;5.63;4.80;;;;;;;;;;5117935;27;20046;-78
2024/01/21 10:48:21;;;;;;;4.60;4.10;;;;;;;;;;5136003;27;20043;-78
2024/01/21 10:50:47;;;;;;;6.53;4.53;;;;;;;;;;5117864;27;20047;-77
2024/01/21 10:53:15;;;;;;;10.50;5.10;;;;;;;;;;5135407;27;20039;-78
2024/01/21 10:55:42;;;;;;;5.88;4.72;;;;;;;;;;5136009;27;20394;-77
2024/01/21 10:58:09;;;;;;;6.88;4.70;;;;;;;;;;5135670;27;20054;-77
2024/01/21 11:00:39;;;;;;;6.68;5.10;;;;;;;;;;5135767;27;20090;-77
2024/01/21 11:03:22;;;;;;;5.25;4.18;;;;;;;;;;5135904;27;20107;-78
2024/01/21 11:05:51;;;;;;;7.20;4.72;;;;;;;;;;5117282;27;20495;-77
2024/01/21 11:08:18;;;;;;;6.25;4.45;;;;;;;;;;5117655;27;20391;-77
2024/01/21 11:10:45;;;;;;;7.00;5.18;;;;;;;;;;5117791;27;20047;-77
2024/01/21 11:13:31;;;;;;;6.05;5.03;;;;;;;;;;5117430;27;20054;-77
2024/01/21 11:15:57;;;;;;;6.93;5.38;;;;;;;;;;5117311;27;20066;-78
2024/01/21 11:18:23;;;;;;;4.97;4.43;;;;;;;;;;5117430;27;20096;-77
2024/01/21 11:20:59;;;;;;;7.88;4.47;;;;;;;;;;5117342;27;20432;-78
2024/01/21 11:23:25;;;;;;;6.07;4.57;;;;;;;;;;5135403;27;20090;-78
2024/01/21 11:25:53;;;;;;;7.50;4.55;;;;;;;;;;5135364;27;20130;-78
2024/01/21 11:28:29;;;;;;;5.90;5.00;;;;;;;;;;5135604;27;20107;-77
2024/01/21 11:31:03;;;;;;;5.20;4.70;;;;;;;;;;5122217;27;20479;-78
2024/01/21 11:33:30;;;;;;;5.80;4.65;;;;;;;;;;5135073;27;20107;-78
2024/01/21 11:35:58;;;;;;;8.02;5.45;;;;;;;;;;5135054;27;20058;-77
2024/01/21 11:38:24;;;;;;;5.60;4.90;;;;;;;;;;5135316;27;20098;-77
2024/01/21 11:41:07;;;;;;;6.22;4.80;;;;;;;;;;5134891;27;20083;-78
2024/01/21 11:43:33;;;;;;;6.82;5.20;;;;;;;;;;5134732;27;20444;-77
2024/01/21 11:46:00;;;;;;;8.25;5.80;;;;;;;;;;5116867;27;20039;-77
2024/01/21 11:48:28;;;;;;;5.85;4.88;;;;;;;;;;5116548;27;20058;-77
2024/01/21 11:50:54;;;;;;;7.28;5.90;;;;;;;;;;5117147;27;20073;-78
2024/01/21 11:53:20;;;;;;;9.68;6.35;;;;;;;;;;5134312;27;20047;-78
2024/01/21 11:55:46;;;;;;;7.40;6.70;;;;;;;;;;5116767;27;20050;-77
2024/01/21 11:58:13;;;;;;;7.90;5.68;;;;;;;;;;5116007;27;20491;-77
2024/01/21 12:00:39;;;;;;;7.00;5.38;;;;;;;;;;5114447;27;20518;-77
2024/01/21 12:03:05;;;;;;;7.90;5.18;;;;;;;;;;5114220;28;20051;-77
2024/01/21 12:05:32;;;;;;;5.88;5.13;;;;;;;;;;5096011;28;20066;-78
2024/01/21 12:08:00;;;;;;;5.55;5.00;;;;;;;;;;5114113;28;20100;-77
2024/01/21 12:10:26;;;;;;;8.85;5.75;;;;;;;;;;5096786;28;20062;-77
2024/01/21 12:12:52;;;;;;;8.02;5.07;;;;;;;;;;5114153;28;20050;-77
2024/01/21 12:15:18;;;;;;;7.50;5.18;;;;;;;;;;5130100;27;20038;-78
2024/01/21 12:17:54;;;;;;;7.18;5.25;;;;;;;;;;5144663;27;20046;-79
2024/01/21 12:20:20;;;;;;;6.60;5.40;;;;;;;;;;5149124;27;20077;-79
2024/01/21 12:22:48;;;;;;;6.05;5.10;;;;;;;;;;5154907;27;20047;-79
2024/01/21 12:25:14;;;;;;;6.45;5.45;;;;;;;;;;5136974;27;20134;-78
2024/01/21 12:27:47;;;;;;;6.05;5.45;;;;;;;;;;5137233;27;20058;-78
2024/01/21 12:30:13;;;;;;;6.13;4.60;;;;;;;;;;5155688;27;20042;-78
2024/01/21 12:32:40;;;;;;;6.35;4.70;;;;;;;;;;5137574;27;20038;-77
2024/01/21 12:35:07;;;;;;;6.88;5.18;;;;;;;;;;5120017;27;20393;-78
2024/01/21 12:37:34;;;;;;;6.38;5.50;;;;;;;;;;5155468;27;20121;-77
2024/01/21 12:40:00;;;;;;;6.35;4.20;;;;;;;;;;5136499;27;20375;-77
2024/01/21 12:42:27;;;;;;;6.38;4.80;;;;;;;;;;5136841;27;20135;-77
2024/01/21 12:44:53;;;;;;;6.25;5.20;;;;;;;;;;5136887;27;20045;-77
2024/01/21 12:47:19;;;;;;;6.75;5.15;;;;;;;;;;5155023;27;20043;-77
2024/01/21 12:49:46;;;;;;;6.15;5.13;;;;;;;;;;5136554;27;20043;-77
2024/01/21 12:52:12;;;;;;;6.85;5.78;;;;;;;;;;5136828;27;20119;-77
2024/01/21 12:54:38;;;;;;;8.98;5.00;;;;;;;;;;5154600;27;20382;-77
2024/01/21 12:57:04;;;;;;;9.73;5.47;;;;;;;;;;5136348;27;20132;-77
2024/01/21 12:59:30;;;;;;;7.80;5.72;;;;;;;;;;5119536;27;20456;-77
2024/01/21 13:01:57;;;;;;;8.00;6.30;;;;;;;;;;5136749;27;20055;-77
2024/01/21 13:04:23;;;;;;;5.82;4.93;;;;;;;;;;5136660;27;20046;-77
2024/01/21 13:06:49;;;;;;;8.45;5.70;;;;;;;;;;5136652;27;20055;-77
2024/01/21 13:09:16;;;;;;;10.18;6.60;;;;;;;;;;5154948;27;20419;-77
2024/01/21 13:11:42;;;;;;;8.68;5.70;;;;;;;;;;5154798;27;20050;-77
2024/01/21 13:14:08;;;;;;;7.18;5.38;;;;;;;;;;5154858;27;20390;-77
2024/01/21 13:16:34;;;;;;;7.57;5.55;;;;;;;;;;5151896;27;20054;-77
2024/01/21 13:19:01;;;;;;;9.27;5.88;;;;;;;;;;5147507;27;20486;-77
2024/01/21 13:21:27;;;;;;;7.85;5.93;;;;;;;;;;5132444;27;20419;-77
2024/01/21 13:23:53;;;;;;;10.82;5.80;;;;;;;;;;5142608;27;20364;-77
2024/01/21 13:26:19;;;;;;;7.32;6.60;;;;;;;;;;5134109;28;20043;-77
2024/01/21 13:30:43;;;;;;;7.18;5.57;;;;;;;;;;5135662;27;20083;-77
2024/01/21 13:31:35;;;;;;;9.98;7.15;;;;;;;;;;5117253;28;20053;-77
2024/01/21 13:34:02;;;;;;;8.95;6.10;;;;;;;;;;5139813;27;20398;-77
2024/01/21 13:36:32;;;;;;;5.93;5.38;;;;;;;;;;5137872;27;20042;-77
2024/01/21 13:38:58;;;;;;;7.53;6.03;;;;;;;;;;5137846;27;20119;-77
2024/01/21 13:41:24;;;;;;;7.15;5.18;;;;;;;;;;5119418;27;20138;-77
2024/01/21 13:43:51;;;;;;;10.30;6.03;;;;;;;;;;5153627;27;20039;-77
2024/01/21 13:46:17;;;;;;;5.60;4.88;;;;;;;;;;5139662;27;20125;-78
2024/01/21 13:48:43;;;;;;;6.13;4.93;;;;;;;;;;5122777;27;20500;-79
2024/01/21 13:51:12;;;;;;;6.20;3.75;;;;;;;;;;5158049;27;20046;-77
2024/01/21 13:53:39;;;;;;;5.32;4.70;;;;;;;;;;5157557;27;20083;-77
2024/01/21 13:56:05;;;;;;;12.95;9.95;;;;;;;;;;5139495;27;20098;-77
2024/01/21 13:58:31;;;;;;;7.23;4.90;;;;;;;;;;5158002;27;20046;-76
2024/01/21 14:00:59;;;;;;;7.55;5.65;;;;;;;;;;5157999;27;20119;-76
2024/01/21 14:03:25;;;;;;;9.50;6.90;;;;;;;;;;5139490;27;20038;-77
2024/01/21 14:05:51;;;;;;;9.55;6.93;;;;;;;;;;5139437;27;20045;-77
2024/01/21 14:08:17;;;;;;;8.40;5.53;;;;;;;;;;5139267;27;20042;-77
2024/01/21 14:10:44;;;;;;;6.40;5.43;;;;;;;;;;5139352;27;20358;-77
2024/01/21 14:13:10;;;;;;;13.77;7.38;;;;;;;;;;5139285;27;20051;-77
2024/01/21 14:15:36;;;;;;;9.55;7.10;;;;;;;;;;5157596;27;20086;-77
2024/01/21 14:18:02;;;;;;;8.73;7.03;;;;;;;;;;5139310;27;20521;-77
2024/01/21 14:20:28;;;;;;;10.32;7.35;;;;;;;;;;5157178;27;20122;-77
2024/01/21 14:22:54;;;;;;;9.32;7.13;;;;;;;;;;5156880;27;20038;-77
2024/01/21 14:25:25;;;;;;;8.88;6.70;;;;;;;;;;5139018;27;20111;-77
2024/01/21 14:27:51;;;;;;;8.95;5.65;;;;;;;;;;5156997;27;20447;-77
2024/01/21 14:30:22;;;;;;;10.20;6.03;;;;;;;;;;5139011;27;20111;-77
2024/01/21 14:32:49;;;;;;;10.10;6.45;;;;;;;;;;5135163;27;20050;-77
2024/01/21 14:35:15;;;;;;;8.95;6.35;;;;;;;;;;5117758;27;20051;-78
2024/01/21 14:37:41;;;;;;;8.50;6.22;;;;;;;;;;5136002;27;20505;-77
2024/01/21 14:40:07;;;;;;;5.93;3.95;;;;;;;;;;5135184;27;20043;-77